< < Back
Terminal Aerodrome Forecast


Current Version              Previous Versions:   1  2  3  4  5  6  7  8  9  

Terminal Aerodrome Forecast

527
FTUS44 KBMX 221700 RRA
TAFBHM
TAF
KBHM 221743Z 2218/2318 11009KT P6SM SCT250
     FM230200 12009G16KT P6SM OVC020
     FM230900 12011G18KT P6SM SHRA OVC015
     FM231600 13012G22KT 4SM TSRA BR BKN015 OVC030CB=

Latest METAR

451
SAUS70 KWBC 231100 RRC
MTRBHM
METAR KBHM 231053Z 11010G16KT 080V150 8SM OVC008 13/12 A2994 RMK AO2
SLP134 T01280117


USA.gov is the U.S. government's official web portal to all federal, state and local government web resources and services.